createdAt,value
2018-04-30T00:00:08.478Z,10.00
2018-04-30T00:02:36.055Z,9.00
2018-04-30T00:05:03.762Z,12.10
2018-04-30T00:07:31.291Z,8.70
2018-04-30T00:09:59.964Z,9.60
2018-04-30T00:12:28.623Z,9.70
2018-04-30T00:14:56.699Z,10.17
2018-04-30T00:17:25.169Z,10.67
2018-04-30T00:19:52.947Z,8.70
2018-04-30T00:22:20.483Z,9.30
2018-04-30T00:24:48.051Z,10.00
2018-04-30T00:27:15.571Z,9.80
2018-04-30T00:29:44.094Z,9.73
2018-04-30T00:32:11.642Z,8.27
2018-04-30T00:34:39.234Z,9.93
2018-04-30T00:37:07.519Z,8.27
2018-04-30T00:39:35.719Z,10.87
2018-04-30T00:42:03.266Z,8.47
2018-04-30T00:44:31.699Z,8.47
2018-04-30T00:47:00.082Z,8.40
2018-04-30T00:49:27.773Z,9.20
2018-04-30T00:51:55.343Z,7.83
2018-04-30T00:54:36.043Z,8.97
2018-04-30T00:57:03.595Z,8.57
2018-04-30T00:59:31.124Z,8.77
2018-04-30T01:01:58.777Z,8.43
2018-04-30T01:04:26.444Z,8.43
2018-04-30T01:06:53.994Z,6.93
2018-04-30T01:09:22.225Z,8.50
2018-04-30T01:11:49.774Z,8.20
2018-04-30T01:14:18.043Z,7.17
2018-04-30T01:16:46.351Z,9.00
2018-04-30T01:19:13.888Z,8.43
2018-04-30T01:21:41.435Z,9.50
2018-04-30T01:24:09.102Z,7.93
2018-04-30T01:26:36.635Z,9.83
2018-04-30T01:29:04.295Z,7.03
2018-04-30T01:31:32.252Z,8.23
2018-04-30T01:33:59.847Z,7.53
2018-04-30T01:36:28.182Z,8.37
2018-04-30T01:38:55.716Z,7.17
2018-04-30T01:41:23.290Z,8.53
2018-04-30T01:43:51.249Z,7.20
2018-04-30T01:46:18.795Z,8.00
2018-04-30T01:48:46.979Z,9.57
2018-04-30T01:51:14.532Z,8.43
2018-04-30T01:53:42.849Z,10.20
2018-04-30T01:56:10.383Z,7.87
2018-04-30T01:58:37.998Z,8.97
2018-04-30T02:01:05.571Z,10.33
2018-04-30T02:03:33.098Z,9.13
2018-04-30T02:06:00.640Z,8.33
2018-04-30T02:08:28.498Z,8.00
2018-04-30T02:10:56.866Z,8.50
2018-04-30T02:13:25.479Z,8.63
2018-04-30T02:15:54.747Z,8.30
2018-04-30T02:18:22.988Z,8.23
2018-04-30T02:20:51.124Z,8.93
2018-04-30T02:23:18.683Z,8.47
2018-04-30T02:25:46.228Z,10.57
2018-04-30T02:28:13.839Z,9.30
2018-04-30T03:39:42.699Z,11.50
2018-04-30T03:42:10.234Z,13.00
2018-04-30T03:44:37.767Z,10.10
2018-04-30T03:47:06.057Z,8.27
2018-04-30T03:49:33.754Z,11.10
2018-04-30T03:52:01.287Z,14.20
2018-04-30T03:54:28.861Z,15.03
2018-04-30T03:56:56.422Z,15.60
2018-04-30T03:59:23.957Z,16.50
2018-04-30T04:02:03.219Z,16.17
2018-04-30T04:04:42.542Z,15.00
2018-04-30T04:07:10.755Z,14.50
2018-04-30T04:09:38.309Z,16.23
2018-04-30T04:12:05.876Z,15.17
2018-04-30T04:14:34.383Z,16.23
2018-04-30T04:17:02.907Z,14.57
2018-04-30T04:19:31.011Z,14.57
2018-04-30T04:21:58.547Z,13.57
2018-04-30T04:24:26.660Z,13.10
2018-04-30T04:26:54.888Z,13.67
2018-04-30T04:29:22.898Z,13.67
2018-04-30T04:31:52.186Z,13.07
2018-04-30T04:34:20.608Z,12.13
2018-04-30T04:36:48.474Z,12.73
2018-04-30T04:39:16.012Z,14.67
2018-04-30T04:41:43.576Z,14.30
2018-04-30T04:44:11.138Z,14.40
2018-04-30T04:46:38.691Z,13.57
2018-04-30T04:49:06.894Z,15.33
2018-04-30T04:51:34.434Z,13.73
2018-04-30T04:54:01.985Z,14.33
2018-04-30T04:56:29.646Z,13.73
2018-04-30T04:58:57.208Z,14.00
2018-04-30T05:01:24.768Z,15.10
2018-04-30T05:03:52.682Z,14.93
2018-04-30T05:06:20.339Z,15.27
2018-04-30T05:08:48.081Z,14.63
2018-04-30T05:11:15.648Z,14.57
2018-04-30T05:13:43.802Z,14.73
2018-04-30T05:16:11.351Z,18.27
2018-04-30T05:18:39.318Z,14.97
2018-04-30T05:21:07.602Z,15.07
2018-04-30T05:23:35.791Z,14.40
2018-04-30T05:26:03.343Z,15.73
2018-04-30T05:28:32.130Z,15.80
2018-04-30T05:31:00.011Z,16.07
2018-04-30T05:33:28.179Z,14.57
2018-04-30T05:35:55.726Z,15.30
2018-04-30T05:38:23.276Z,15.43
2018-04-30T05:40:50.966Z,15.50
2018-04-30T05:43:18.807Z,14.60
2018-04-30T05:45:46.399Z,15.17
2018-04-30T05:48:14.859Z,15.53
2018-04-30T05:50:43.083Z,15.00
2018-04-30T05:53:10.651Z,15.83
2018-04-30T05:55:38.188Z,14.73
2018-04-30T05:58:05.767Z,14.70
2018-04-30T06:00:33.356Z,14.37
2018-04-30T06:03:00.958Z,15.70
2018-04-30T06:05:28.530Z,13.90
2018-04-30T06:07:56.864Z,13.73
2018-04-30T06:10:24.408Z,14.37
2018-04-30T06:12:52.119Z,14.20
2018-04-30T06:15:20.489Z,14.43
2018-04-30T06:17:49.178Z,14.20
2018-04-30T06:20:17.671Z,15.70
2018-04-30T06:22:45.877Z,13.33
2018-04-30T06:25:13.904Z,14.13
2018-04-30T06:27:41.450Z,13.70
2018-04-30T06:30:09.886Z,13.73
2018-04-30T06:32:37.416Z,14.03
2018-04-30T06:35:04.954Z,14.20
2018-04-30T06:37:32.522Z,13.90
2018-04-30T06:40:00.072Z,13.87
2018-04-30T06:42:27.608Z,13.87
2018-04-30T06:44:55.187Z,13.47
2018-04-30T06:47:23.356Z,12.93
2018-04-30T06:49:51.017Z,12.87
2018-04-30T06:52:18.678Z,13.17
2018-04-30T06:54:46.262Z,13.37
2018-04-30T06:57:13.797Z,14.00
2018-04-30T06:59:41.363Z,12.53
2018-04-30T07:02:08.951Z,13.17
2018-04-30T07:04:36.483Z,12.53
2018-04-30T07:07:05.164Z,12.80
2018-04-30T07:09:32.792Z,13.17
2018-04-30T07:12:00.279Z,12.93
2018-04-30T07:14:28.691Z,11.57
2018-04-30T07:16:56.751Z,12.93
2018-04-30T07:19:24.843Z,11.73
2018-04-30T07:21:52.936Z,12.60
2018-04-30T07:24:20.482Z,12.30
2018-04-30T07:26:48.349Z,11.47
2018-04-30T07:29:15.903Z,11.47
2018-04-30T07:31:43.864Z,10.30
2018-04-30T07:34:11.414Z,10.43
2018-04-30T07:36:39.471Z,10.50
2018-04-30T07:39:07.135Z,10.60
2018-04-30T07:41:34.616Z,10.30
2018-04-30T07:44:02.187Z,10.80
2018-04-30T07:46:29.714Z,10.30
2018-04-30T07:48:57.969Z,11.07
2018-04-30T07:51:25.500Z,9.90
2018-04-30T07:53:53.059Z,8.37
2018-04-30T07:56:20.615Z,8.60
2018-04-30T07:58:48.424Z,7.77
2018-04-30T08:01:16.932Z,7.13
2018-04-30T08:03:45.322Z,7.67
2018-04-30T08:06:13.415Z,6.60
2018-04-30T08:08:40.943Z,5.80
2018-04-30T08:11:08.475Z,6.63
2018-04-30T08:13:36.602Z,6.53
2018-04-30T08:16:04.727Z,5.83
2018-04-30T08:18:32.858Z,6.20
2018-04-30T08:21:01.177Z,7.30
2018-04-30T08:23:28.705Z,5.67
2018-04-30T08:25:56.277Z,5.33
2018-04-30T08:28:23.851Z,6.50
2018-04-30T08:30:53.181Z,5.77
2018-04-30T08:33:20.713Z,5.50
2018-04-30T08:35:48.783Z,5.87
2018-04-30T08:38:16.350Z,6.30
2018-04-30T08:40:43.899Z,5.27
2018-04-30T08:43:11.440Z,6.27
2018-04-30T08:45:39.000Z,5.27
2018-04-30T08:48:08.333Z,5.57
2018-04-30T08:50:35.854Z,4.83
2018-04-30T08:53:03.411Z,5.53
2018-04-30T08:55:30.973Z,4.60
2018-04-30T08:57:58.680Z,4.93
2018-04-30T09:00:26.352Z,4.70
2018-04-30T09:02:54.527Z,4.47
2018-04-30T09:05:22.742Z,4.47
2018-04-30T09:07:50.951Z,3.80
2018-04-30T09:10:18.637Z,4.20
2018-04-30T09:12:46.167Z,3.33
2018-04-30T09:15:14.521Z,3.60
2018-04-30T09:17:42.634Z,2.87
2018-04-30T09:20:10.919Z,3.30
2018-04-30T09:22:39.357Z,2.57
2018-04-30T09:25:06.904Z,3.03
2018-04-30T09:27:34.447Z,2.17
2018-04-30T09:30:02.028Z,2.27
2018-04-30T09:32:30.251Z,1.97
2018-04-30T09:34:57.850Z,1.70
2018-04-30T09:37:25.574Z,2.60
2018-04-30T09:39:53.139Z,1.73
2018-04-30T09:42:20.666Z,1.73
2018-04-30T09:44:48.315Z,2.10
2018-04-30T09:47:16.403Z,1.43
2018-04-30T09:49:43.944Z,2.00
2018-04-30T09:52:11.502Z,1.63
2018-04-30T09:54:39.059Z,3.77
2018-04-30T09:57:06.588Z,1.60
2018-04-30T09:59:34.120Z,2.30
2018-04-30T10:02:01.688Z,1.50
2018-04-30T10:04:29.240Z,2.10
2018-04-30T10:06:58.387Z,1.80
2018-04-30T10:09:25.963Z,2.97
2018-04-30T10:11:54.201Z,1.27
2018-04-30T10:14:22.642Z,1.67
2018-04-30T10:16:50.799Z,1.70
2018-04-30T10:19:18.703Z,1.60
2018-04-30T10:21:46.713Z,1.63
2018-04-30T10:24:15.032Z,1.40
2018-04-30T10:26:42.613Z,1.80
2018-04-30T10:29:10.258Z,1.60
2018-04-30T10:31:38.419Z,3.07
2018-04-30T10:34:05.947Z,1.50
2018-04-30T10:36:33.509Z,2.70
2018-04-30T10:39:01.103Z,1.63
2018-04-30T10:41:28.630Z,1.70
2018-04-30T10:43:56.288Z,1.40
2018-04-30T10:46:23.942Z,1.90
2018-04-30T10:48:52.216Z,1.60
2018-04-30T10:51:20.978Z,1.60
2018-04-30T10:53:48.782Z,1.70
2018-04-30T10:56:16.427Z,1.53
2018-04-30T10:58:44.929Z,1.87
2018-04-30T11:01:12.467Z,1.30
2018-04-30T11:03:40.887Z,1.83
2018-04-30T11:06:09.252Z,1.23
2018-04-30T11:08:37.740Z,1.60
2018-04-30T11:11:05.771Z,1.70
2018-04-30T11:13:33.872Z,1.97
2018-04-30T11:16:01.851Z,1.67
2018-04-30T11:18:30.216Z,1.50
2018-04-30T11:20:58.918Z,1.87
2018-04-30T11:23:26.445Z,1.47
2018-04-30T11:25:53.987Z,2.60
2018-04-30T11:28:21.557Z,1.40
2018-04-30T11:30:50.073Z,1.83
2018-04-30T11:33:17.782Z,1.20
2018-04-30T11:35:45.347Z,1.80
2018-04-30T11:38:12.926Z,1.40
2018-04-30T11:40:40.470Z,2.00
2018-04-30T11:43:08.979Z,1.37
2018-04-30T11:45:36.598Z,2.17
2018-04-30T11:48:05.215Z,2.70
2018-04-30T11:50:32.764Z,1.13
2018-04-30T11:53:00.314Z,1.80
2018-04-30T11:55:27.949Z,1.30
2018-04-30T11:57:55.460Z,1.50
2018-04-30T12:00:23.013Z,0.93
2018-04-30T12:02:51.007Z,1.13
2018-04-30T12:05:18.670Z,1.53
2018-04-30T12:07:47.389Z,1.30
2018-04-30T12:10:15.606Z,1.33
2018-04-30T12:12:43.574Z,1.03
2018-04-30T12:15:12.001Z,2.63
2018-04-30T12:17:40.337Z,1.00
2018-04-30T12:20:08.743Z,2.17
2018-04-30T12:22:36.686Z,1.40
2018-04-30T12:25:04.232Z,1.90
2018-04-30T12:27:31.814Z,1.30
2018-04-30T12:29:59.470Z,1.73
2018-04-30T12:32:27.823Z,1.27
2018-04-30T12:34:55.368Z,1.63
2018-04-30T12:37:22.971Z,1.23
2018-04-30T12:39:50.711Z,1.27
2018-04-30T12:42:18.638Z,1.50
2018-04-30T12:44:46.250Z,1.40
2018-04-30T12:47:14.225Z,2.50
2018-04-30T12:49:41.846Z,1.13
2018-04-30T12:52:09.987Z,2.03
2018-04-30T12:54:37.583Z,1.17
2018-04-30T12:57:05.132Z,1.80
2018-04-30T12:59:32.724Z,1.33
2018-04-30T13:02:00.424Z,2.07
2018-04-30T13:04:28.595Z,1.20
2018-04-30T13:06:56.741Z,1.27
2018-04-30T13:09:24.819Z,1.17
2018-04-30T13:11:52.792Z,0.97
2018-04-30T13:14:21.159Z,1.03
2018-04-30T13:16:50.218Z,0.77
2018-04-30T13:19:17.852Z,1.70
2018-04-30T13:21:46.242Z,0.90
2018-04-30T13:24:13.797Z,2.13
2018-04-30T13:26:41.358Z,1.00
2018-04-30T13:29:09.725Z,1.70
2018-04-30T13:31:38.140Z,1.00
2018-04-30T13:34:05.666Z,1.70
2018-04-30T13:36:33.227Z,1.13
2018-04-30T13:39:00.802Z,1.50
2018-04-30T13:41:28.341Z,0.90
2018-04-30T13:43:55.877Z,1.17
2018-04-30T13:46:23.427Z,1.03
2018-04-30T13:48:51.931Z,0.90
2018-04-30T13:51:19.633Z,1.10
2018-04-30T13:53:47.182Z,0.73
2018-04-30T13:56:14.850Z,1.17
2018-04-30T13:58:42.397Z,0.73
2018-04-30T14:01:09.923Z,3.37
2018-04-30T14:03:37.939Z,0.90
2018-04-30T14:06:06.295Z,1.90
2018-04-30T14:08:33.829Z,1.23
2018-04-30T14:11:02.109Z,1.60
2018-04-30T14:13:30.330Z,1.00
2018-04-30T14:15:58.243Z,2.37
2018-04-30T14:18:26.338Z,1.10
2018-04-30T14:20:54.205Z,0.97
2018-04-30T14:23:21.826Z,1.13
2018-04-30T14:25:49.615Z,0.80
2018-04-30T14:28:17.167Z,1.40
2018-04-30T14:30:45.275Z,1.87
2018-04-30T14:33:12.834Z,2.23
2018-04-30T14:35:41.301Z,1.20
2018-04-30T14:38:08.840Z,1.87
2018-04-30T14:40:36.384Z,1.40
2018-04-30T14:43:04.060Z,2.00
2018-04-30T14:45:32.105Z,2.53
2018-04-30T14:48:00.326Z,1.07
2018-04-30T14:50:28.703Z,2.63
2018-04-30T14:52:56.239Z,2.03
2018-04-30T14:55:23.818Z,2.37
2018-04-30T14:57:51.460Z,0.90
2018-04-30T15:00:19.266Z,1.47
2018-04-30T15:02:46.793Z,1.00
2018-04-30T15:05:14.394Z,1.17
2018-04-30T15:07:42.513Z,1.33
2018-04-30T15:10:10.042Z,1.43
2018-04-30T15:12:38.100Z,1.73
2018-04-30T15:15:06.214Z,2.07
2018-04-30T15:17:34.426Z,9.50
2018-04-30T15:20:02.590Z,2.10
2018-04-30T15:22:30.135Z,2.40
2018-04-30T15:24:57.662Z,1.10
2018-04-30T15:27:25.329Z,2.70
2018-04-30T15:29:53.818Z,0.80
2018-04-30T15:32:21.971Z,1.30
2018-04-30T15:34:49.604Z,0.90
2018-04-30T15:37:17.194Z,1.03
2018-04-30T15:39:44.918Z,1.10
2018-04-30T15:42:12.488Z,1.10
2018-04-30T15:44:40.134Z,1.50
2018-04-30T15:47:08.336Z,1.50
2018-04-30T15:49:36.710Z,1.90
2018-04-30T15:52:04.232Z,1.20
2018-04-30T15:54:31.782Z,2.67
2018-04-30T15:56:59.872Z,1.60
2018-04-30T15:59:27.426Z,3.00
2018-04-30T16:01:54.948Z,1.33
2018-04-30T16:04:22.628Z,1.93
2018-04-30T16:06:50.920Z,1.17
2018-04-30T16:09:18.574Z,1.80
2018-04-30T16:11:46.735Z,1.23
2018-04-30T16:14:15.105Z,1.40
2018-04-30T16:16:43.123Z,1.50
2018-04-30T16:19:11.079Z,1.10
2018-04-30T16:21:39.458Z,2.97
2018-04-30T16:24:06.994Z,1.50
2018-04-30T16:26:34.514Z,2.40
2018-04-30T16:29:02.078Z,1.37
2018-04-30T16:31:30.064Z,2.70
2018-04-30T16:33:57.612Z,1.40
2018-04-30T16:36:25.171Z,2.33
2018-04-30T16:38:52.795Z,1.20
2018-04-30T16:41:20.380Z,1.87
2018-04-30T16:43:48.167Z,1.17
2018-04-30T16:46:16.181Z,1.37
2018-04-30T16:48:44.381Z,1.40
2018-04-30T16:51:11.942Z,1.57
2018-04-30T16:53:39.532Z,3.43
2018-04-30T16:56:07.062Z,1.30
2018-04-30T16:58:34.648Z,2.27
2018-04-30T17:01:02.159Z,1.67
2018-04-30T17:03:29.962Z,2.60
2018-04-30T17:05:57.979Z,1.80
2018-04-30T17:08:25.650Z,4.40
2018-04-30T17:10:53.188Z,1.43
2018-04-30T17:13:21.618Z,2.03
2018-04-30T17:15:49.259Z,1.50
2018-04-30T17:18:17.364Z,1.50
2018-04-30T17:20:45.626Z,1.60
2018-04-30T17:23:13.167Z,1.50
2018-04-30T17:25:40.695Z,1.60
2018-04-30T17:28:08.254Z,1.83
2018-04-30T17:30:36.861Z,2.77
2018-04-30T17:33:04.397Z,1.93
2018-04-30T17:35:31.914Z,2.53
2018-04-30T17:37:59.466Z,1.70
2018-04-30T17:40:26.991Z,5.20
2018-04-30T17:42:55.316Z,1.57
2018-04-30T17:45:23.555Z,2.33
2018-04-30T17:47:51.772Z,1.40
2018-04-30T17:50:19.556Z,2.53
2018-04-30T17:52:47.074Z,1.40
2018-04-30T17:55:14.643Z,1.70
2018-04-30T17:57:42.859Z,2.03
2018-04-30T18:00:10.444Z,1.50
2018-04-30T18:02:37.983Z,2.43
2018-04-30T18:05:05.527Z,2.00
2018-04-30T18:07:33.607Z,2.70
2018-04-30T18:10:01.139Z,2.07
2018-04-30T18:12:29.354Z,3.07
2018-04-30T18:14:57.542Z,1.57
2018-04-30T18:17:25.666Z,2.23
2018-04-30T18:19:54.315Z,1.67
2018-04-30T18:22:21.941Z,2.23
2018-04-30T18:24:49.574Z,1.60
2018-04-30T18:27:17.142Z,2.03
2018-04-30T18:29:44.893Z,1.80
2018-04-30T18:32:13.171Z,1.70
2018-04-30T18:34:40.691Z,2.83
2018-04-30T18:37:08.217Z,1.90
2018-04-30T18:39:35.784Z,2.70
2018-04-30T18:42:04.067Z,2.20
2018-04-30T18:44:31.638Z,3.37
2018-04-30T18:47:00.128Z,2.50
2018-04-30T18:49:27.647Z,3.07
2018-04-30T18:51:55.168Z,2.03
2018-04-30T18:54:22.771Z,2.63
2018-04-30T18:56:50.287Z,2.00
2018-04-30T18:59:19.342Z,2.33
2018-04-30T19:01:46.917Z,2.07
2018-04-30T19:04:14.458Z,2.33
2018-04-30T19:06:43.084Z,2.63
2018-04-30T19:09:10.708Z,2.70
2018-04-30T19:11:38.183Z,3.20
2018-04-30T19:14:06.343Z,2.00
2018-04-30T19:16:33.888Z,3.37
2018-04-30T19:19:02.209Z,2.60
2018-04-30T19:21:30.028Z,4.60
2018-04-30T19:23:57.554Z,2.10
2018-04-30T19:26:25.107Z,3.47
2018-04-30T19:28:52.719Z,4.27
2018-04-30T19:31:21.362Z,4.20
2018-04-30T19:33:48.971Z,3.00
2018-04-30T19:36:16.518Z,5.23
2018-04-30T19:38:44.805Z,3.57
2018-04-30T19:41:12.337Z,4.87
2018-04-30T19:43:39.854Z,3.30
2018-04-30T19:46:08.533Z,4.37
2018-04-30T19:48:36.910Z,3.10
2018-04-30T19:51:05.017Z,3.47
2018-04-30T19:53:32.543Z,2.97
2018-04-30T19:56:00.171Z,3.27
2018-04-30T19:58:27.734Z,2.60
2018-04-30T20:00:55.259Z,2.70
2018-04-30T20:03:22.791Z,3.10
2018-04-30T20:05:51.399Z,2.20
2018-04-30T20:08:18.994Z,4.23
2018-04-30T20:10:46.514Z,2.53
2018-04-30T20:13:15.016Z,3.30
2018-04-30T20:15:42.535Z,2.40
2018-04-30T20:18:10.800Z,2.90
2018-04-30T20:20:38.902Z,2.37
2018-04-30T20:23:06.502Z,4.00
2018-04-30T20:25:34.049Z,2.37
2018-04-30T20:28:01.611Z,2.40
2018-04-30T20:30:29.787Z,2.57
2018-04-30T20:32:57.319Z,2.73
2018-04-30T20:35:25.742Z,2.50
2018-04-30T20:37:53.275Z,1.90
2018-04-30T20:40:20.798Z,2.37
2018-04-30T20:42:48.543Z,1.97
2018-04-30T20:45:16.881Z,3.50
2018-04-30T20:47:44.902Z,3.20
2018-04-30T20:50:12.820Z,2.43
2018-04-30T20:52:40.383Z,2.70
2018-04-30T20:55:07.904Z,2.60
2018-04-30T20:57:35.461Z,3.37
2018-04-30T21:00:03.061Z,2.90
2018-04-30T21:02:30.563Z,3.73
2018-04-30T21:04:58.239Z,3.27
2018-04-30T21:07:26.772Z,2.90
2018-04-30T21:09:54.311Z,2.77
2018-04-30T21:12:21.883Z,3.20
2018-04-30T21:14:50.664Z,2.77
2018-04-30T21:17:19.000Z,3.23
2018-04-30T21:19:46.928Z,2.67
2018-04-30T21:22:14.477Z,2.73
2018-04-30T21:24:42.026Z,3.03
2018-04-30T21:27:09.594Z,2.77
2018-04-30T21:29:37.147Z,2.90
2018-04-30T21:32:05.265Z,2.70
2018-04-30T21:34:33.630Z,5.20
2018-04-30T21:37:02.510Z,2.70
2018-04-30T21:39:30.687Z,3.37
2018-04-30T21:41:58.227Z,2.27
2018-04-30T21:44:25.796Z,3.40
2018-04-30T21:46:54.192Z,2.40
2018-04-30T21:49:22.454Z,3.80
2018-04-30T21:51:50.016Z,2.57
2018-04-30T21:54:17.613Z,2.87
2018-04-30T21:56:45.211Z,3.33
2018-04-30T21:59:12.783Z,2.27
2018-04-30T22:01:40.335Z,3.13
2018-04-30T22:04:07.894Z,2.60
2018-04-30T22:06:36.359Z,3.60
2018-04-30T22:09:03.959Z,2.73
2018-04-30T22:11:31.478Z,3.70
2018-04-30T22:13:59.577Z,2.50
2018-04-30T22:16:27.145Z,3.37
2018-04-30T22:18:55.231Z,2.90
2018-04-30T22:21:23.286Z,4.17
2018-04-30T22:23:50.874Z,2.10
2018-04-30T22:26:18.705Z,2.90
2018-04-30T22:28:47.096Z,3.13
2018-04-30T22:31:15.226Z,2.60
2018-04-30T22:33:42.780Z,3.30
2018-04-30T22:36:10.311Z,2.63
2018-04-30T22:38:37.868Z,2.77
2018-04-30T22:41:05.383Z,2.57
2018-04-30T22:43:33.194Z,2.60
2018-04-30T22:46:01.763Z,3.07
2018-04-30T22:48:30.174Z,2.90
2018-04-30T22:50:57.695Z,2.50
2018-04-30T22:53:25.219Z,3.03
2018-04-30T22:55:52.838Z,2.67
2018-04-30T22:58:20.371Z,3.30
2018-04-30T23:00:48.152Z,1.90
2018-04-30T23:03:16.336Z,3.20
2018-04-30T23:05:43.973Z,2.77
2018-04-30T23:08:12.215Z,5.33
2018-04-30T23:10:39.777Z,2.00
2018-04-30T23:13:08.285Z,2.97
2018-04-30T23:15:35.814Z,2.40
2018-04-30T23:18:04.228Z,2.93
2018-04-30T23:20:32.703Z,2.80
2018-04-30T23:23:00.361Z,3.00
2018-04-30T23:25:27.897Z,3.60
2018-04-30T23:27:56.851Z,2.37
2018-04-30T23:30:25.214Z,2.90
2018-04-30T23:32:52.738Z,2.50
2018-04-30T23:35:20.445Z,3.03
2018-04-30T23:37:48.116Z,2.90
2018-04-30T23:40:15.690Z,2.90
2018-04-30T23:42:43.231Z,2.80
2018-04-30T23:45:10.790Z,3.83
2018-04-30T23:47:39.087Z,2.53
2018-04-30T23:50:07.607Z,3.17
2018-04-30T23:52:35.676Z,2.73
2018-04-30T23:55:03.276Z,3.03
2018-04-30T23:57:30.808Z,3.50
2018-04-30T23:59:58.355Z,3.10
